createdAt,value
2022-12-13T00:02:26.020Z,54.67
2022-12-13T00:04:52.712Z,58.53
2022-12-13T00:07:19.300Z,51.13
2022-12-13T00:09:45.840Z,52.78
2022-12-13T00:12:12.314Z,58.35
2022-12-13T00:14:38.817Z,89.05
2022-12-13T00:17:06.573Z,77.97
2022-12-13T00:19:33.081Z,67.13
2022-12-13T00:21:59.454Z,49.42
2022-12-13T00:24:26.029Z,58.80
2022-12-13T00:26:54.943Z,83.22
2022-12-13T00:29:21.564Z,73.22
2022-12-13T00:32:03.505Z,56.20
2022-12-13T00:34:30.173Z,67.20
2022-12-13T00:36:59.060Z,63.40
2022-12-13T00:39:25.805Z,55.22
2022-12-13T00:41:52.392Z,61.17
2022-12-13T00:44:19.834Z,61.92
2022-12-13T00:46:46.443Z,45.42
2022-12-13T00:49:13.760Z,70.43
2022-12-13T00:51:40.904Z,56.35
2022-12-13T00:54:07.298Z,51.97
2022-12-13T00:56:34.191Z,45.15
2022-12-13T00:59:00.905Z,62.78
2022-12-13T01:01:30.676Z,46.60
2022-12-13T01:04:00.162Z,50.40
2022-12-13T01:06:31.245Z,44.50
2022-12-13T01:08:57.703Z,55.03
2022-12-13T01:11:24.244Z,62.10
2022-12-13T01:13:50.788Z,56.78
2022-12-13T01:16:18.806Z,49.92
2022-12-13T01:18:46.064Z,61.75
2022-12-13T01:21:18.910Z,55.78
2022-12-13T01:23:45.577Z,58.25
2022-12-13T01:26:18.116Z,53.83
2022-12-13T01:28:44.984Z,59.78
2022-12-13T01:31:14.241Z,74.43
2022-12-13T01:33:41.057Z,84.05
2022-12-13T01:36:11.751Z,69.20
2022-12-13T01:38:38.455Z,93.25
2022-12-13T01:41:17.083Z,81.15
2022-12-13T01:43:44.579Z,74.63
2022-12-13T01:46:12.157Z,69.70
2022-12-13T01:48:44.774Z,78.28
2022-12-13T01:51:15.420Z,68.18
2022-12-13T01:53:44.093Z,55.47
2022-12-13T01:56:16.898Z,65.55
2022-12-13T01:58:44.284Z,58.67
2022-12-13T02:01:10.831Z,56.70
2022-12-13T02:03:37.820Z,60.25
2022-12-13T02:06:16.400Z,55.10
2022-12-13T02:08:45.148Z,56.83
2022-12-13T02:11:13.230Z,57.05
2022-12-13T02:13:39.857Z,53.08
2022-12-13T02:16:25.261Z,50.53
2022-12-13T02:19:16.225Z,55.67
2022-12-13T02:22:07.492Z,56.13
2022-12-13T02:24:48.569Z,60.83
2022-12-13T02:27:43.311Z,49.42
2022-12-13T02:30:24.691Z,49.92
2022-12-13T02:32:51.141Z,65.82
2022-12-13T02:35:33.541Z,56.20
2022-12-13T02:37:59.954Z,48.38
2022-12-13T02:40:32.166Z,55.83
2022-12-13T02:43:01.444Z,50.25
2022-12-13T02:45:33.665Z,57.30
2022-12-13T02:48:04.414Z,50.58
2022-12-13T02:50:32.518Z,55.38
2022-12-13T02:53:00.230Z,49.38
2022-12-13T02:55:28.433Z,46.50
2022-12-13T02:57:55.227Z,47.72
2022-12-13T03:00:32.479Z,52.63
2022-12-13T03:03:23.539Z,46.75
2022-12-13T03:06:34.122Z,41.92
2022-12-13T03:09:32.929Z,46.58
2022-12-13T03:12:34.965Z,48.38
2022-12-13T03:15:24.143Z,47.42
2022-12-13T03:17:56.767Z,53.92
2022-12-13T03:20:26.230Z,49.17
2022-12-13T03:22:53.525Z,48.40
2022-12-13T03:25:32.265Z,53.40
2022-12-13T03:28:01.386Z,52.25
2022-12-13T03:30:29.505Z,50.53
2022-12-13T03:32:55.984Z,53.35
2022-12-13T03:35:22.953Z,48.15
2022-12-13T03:37:50.465Z,48.47
2022-12-13T03:40:18.401Z,46.15
2022-12-13T03:42:45.147Z,44.88
2022-12-13T03:45:11.720Z,47.55
2022-12-13T03:47:38.297Z,44.10
2022-12-13T03:50:07.577Z,43.47
2022-12-13T03:52:59.176Z,42.83
2022-12-13T03:55:26.249Z,47.10
2022-12-13T03:57:52.785Z,45.00
2022-12-13T04:00:19.343Z,53.33
2022-12-13T04:02:45.988Z,51.78
2022-12-13T04:05:12.604Z,51.70
2022-12-13T04:07:39.339Z,50.40
2022-12-13T04:10:26.286Z,47.67
2022-12-13T04:13:12.499Z,53.20
2022-12-13T04:15:39.802Z,50.60
2022-12-13T04:18:06.473Z,51.38
2022-12-13T04:20:32.985Z,50.08
2022-12-13T04:22:59.470Z,55.90
2022-12-13T04:25:25.973Z,51.78
2022-12-13T04:27:52.345Z,51.08
2022-12-13T04:30:18.865Z,56.03
2022-12-13T04:32:45.378Z,54.65
2022-12-13T04:35:11.893Z,53.80
2022-12-13T04:37:38.437Z,46.47
2022-12-13T04:40:05.514Z,49.97
2022-12-13T04:42:32.009Z,49.15
2022-12-13T04:44:58.598Z,44.00
2022-12-13T04:47:25.223Z,46.25
2022-12-13T04:49:51.562Z,45.58
2022-12-13T04:52:22.519Z,46.70
2022-12-13T04:54:55.842Z,46.10
2022-12-13T04:57:23.520Z,42.45
2022-12-13T04:59:50.177Z,42.50
2022-12-13T05:02:24.070Z,42.78
2022-12-13T05:04:53.407Z,40.58
2022-12-13T05:07:20.735Z,45.22
2022-12-13T05:09:47.216Z,45.50
2022-12-13T05:12:23.289Z,47.40
2022-12-13T05:14:51.391Z,50.20
2022-12-13T05:17:18.191Z,56.67
2022-12-13T05:19:45.206Z,46.42
2022-12-13T05:22:20.752Z,49.85
2022-12-13T05:24:48.050Z,44.35
2022-12-13T05:27:25.648Z,47.13
2022-12-13T05:30:04.467Z,45.80
2022-12-13T05:32:43.776Z,44.35
2022-12-13T05:35:21.944Z,40.42
2022-12-13T05:37:54.582Z,46.65
2022-12-13T05:40:26.089Z,46.47
2022-12-13T05:43:00.714Z,50.90
2022-12-13T05:45:29.465Z,47.80
2022-12-13T05:47:55.745Z,50.47
2022-12-13T05:50:22.310Z,56.28
2022-12-13T05:52:48.715Z,49.22
2022-12-13T05:55:15.628Z,52.33
2022-12-13T05:57:42.488Z,51.20
2022-12-13T06:00:29.354Z,48.85
2022-12-13T06:03:00.603Z,50.47
2022-12-13T06:05:27.870Z,49.60
2022-12-13T06:07:57.642Z,47.40
2022-12-13T06:10:24.695Z,46.50
2022-12-13T06:12:51.203Z,45.58
2022-12-13T06:15:21.893Z,40.75
2022-12-13T06:17:49.433Z,42.33
2022-12-13T06:20:23.354Z,39.78
2022-12-13T06:22:51.253Z,43.08
2022-12-13T06:25:30.812Z,42.47
2022-12-13T06:28:01.108Z,40.10
2022-12-13T06:30:31.230Z,40.22
2022-12-13T06:32:57.882Z,43.17
2022-12-13T06:35:29.576Z,45.85
2022-12-13T06:38:01.131Z,48.88
2022-12-13T06:40:28.552Z,45.25
2022-12-13T06:42:54.951Z,54.00
2022-12-13T06:45:21.793Z,45.60
2022-12-13T06:47:48.199Z,45.33
2022-12-13T06:50:15.080Z,54.88
2022-12-13T06:52:41.426Z,49.72
2022-12-13T06:55:08.150Z,44.90
2022-12-13T06:57:34.939Z,44.92
2022-12-13T07:00:03.574Z,50.08
2022-12-13T07:02:30.341Z,42.10
2022-12-13T07:04:56.903Z,46.22
2022-12-13T07:07:24.919Z,42.55
2022-12-13T07:09:51.546Z,43.40
2022-12-13T07:12:19.350Z,40.25
2022-12-13T07:14:46.081Z,41.50
2022-12-13T07:17:12.665Z,45.03
2022-12-13T07:20:00.865Z,46.03
2022-12-13T07:22:27.986Z,47.05
2022-12-13T07:24:54.487Z,42.85
2022-12-13T07:27:21.075Z,41.50
2022-12-13T07:29:47.598Z,40.83
2022-12-13T07:32:14.099Z,40.15
2022-12-13T07:34:40.595Z,44.25
2022-12-13T07:37:09.265Z,37.15
2022-12-13T07:40:02.571Z,38.42
2022-12-13T07:42:30.223Z,34.65
2022-12-13T07:44:56.755Z,35.78
2022-12-13T07:47:23.364Z,38.80
2022-12-13T07:49:49.910Z,39.22
2022-12-13T07:52:16.295Z,37.95
2022-12-13T07:54:42.630Z,36.30
2022-12-13T07:57:09.106Z,39.22
2022-12-13T07:59:35.587Z,36.97
2022-12-13T08:02:02.125Z,37.38
2022-12-13T08:04:29.635Z,41.35
2022-12-13T08:07:09.014Z,44.30
2022-12-13T08:09:35.975Z,36.63
2022-12-13T08:12:02.521Z,38.15
2022-12-13T08:14:29.041Z,38.58
2022-12-13T08:16:55.443Z,38.33
2022-12-13T08:19:21.953Z,31.73
2022-12-13T08:21:58.010Z,34.88
2022-12-13T08:24:27.463Z,36.47
2022-12-13T08:26:55.001Z,34.92
2022-12-13T08:29:23.230Z,34.35
2022-12-13T08:32:04.860Z,37.17
2022-12-13T08:34:31.941Z,36.65
2022-12-13T08:37:01.725Z,35.70
2022-12-13T08:39:35.719Z,39.95
2022-12-13T08:42:16.389Z,45.03
2022-12-13T08:44:52.678Z,36.75
2022-12-13T08:47:23.817Z,34.17
2022-12-13T08:49:52.238Z,35.20
2022-12-13T08:52:19.626Z,35.55
2022-12-13T08:54:46.000Z,36.15
2022-12-13T08:57:12.987Z,34.97
2022-12-13T08:59:39.468Z,33.92
2022-12-13T09:02:06.374Z,34.45
2022-12-13T09:04:32.952Z,37.90
2022-12-13T09:07:01.594Z,39.90
2022-12-13T09:09:29.577Z,30.13
2022-12-13T09:11:59.460Z,40.72
2022-12-13T09:14:33.841Z,38.03
2022-12-13T09:17:02.937Z,34.70
2022-12-13T09:19:37.183Z,31.25
2022-12-13T09:22:04.834Z,34.58
2022-12-13T09:24:36.380Z,32.35
2022-12-13T09:27:09.707Z,36.47
2022-12-13T09:29:37.840Z,31.98
2022-12-13T09:32:04.723Z,30.02
2022-12-13T09:34:32.994Z,30.27
2022-12-13T09:37:01.614Z,27.35
2022-12-13T09:39:28.560Z,30.75
2022-12-13T09:42:00.910Z,29.58
2022-12-13T09:44:43.964Z,28.50
2022-12-13T09:47:28.535Z,26.15
2022-12-13T09:50:15.009Z,24.52
2022-12-13T09:52:43.957Z,27.35
2022-12-13T09:55:22.911Z,26.10
2022-12-13T09:57:50.645Z,27.10
2022-12-13T10:00:23.781Z,26.80
2022-12-13T10:02:57.237Z,28.70
2022-12-13T10:05:39.433Z,26.08
2022-12-13T10:08:16.811Z,27.20
2022-12-13T10:10:43.743Z,25.88
2022-12-13T10:13:26.671Z,28.77
2022-12-13T10:16:02.958Z,25.15
2022-12-13T10:18:41.011Z,25.23
2022-12-13T10:21:17.922Z,26.08
2022-12-13T10:24:22.848Z,27.08
2022-12-13T10:26:36.627Z,24.60
2022-12-13T10:29:05.476Z,24.15
2022-12-13T10:31:40.580Z,26.63
2022-12-13T10:34:20.163Z,48.25
2022-12-13T10:36:46.661Z,27.35
2022-12-13T10:39:37.033Z,24.33
2022-12-13T10:42:07.017Z,25.25
2022-12-13T10:44:33.418Z,22.20
2022-12-13T10:47:17.252Z,23.88
2022-12-13T10:49:51.964Z,24.70
2022-12-13T10:52:48.758Z,23.77
2022-12-13T10:55:32.026Z,25.48
2022-12-13T10:58:07.279Z,24.90
2022-12-13T11:00:39.386Z,22.75
2022-12-13T11:03:07.285Z,24.88
2022-12-13T11:05:36.286Z,22.27
2022-12-13T11:08:27.861Z,22.80
2022-12-13T11:10:59.765Z,21.60
2022-12-13T11:13:38.612Z,21.77
2022-12-13T11:16:31.897Z,22.17
2022-12-13T11:19:05.023Z,20.45
2022-12-13T11:21:34.654Z,24.27
2022-12-13T11:24:08.080Z,19.88
2022-12-13T11:26:39.141Z,19.98
2022-12-13T11:29:08.746Z,20.98
2022-12-13T11:31:35.201Z,19.52
2022-12-13T11:34:43.442Z,19.95
2022-12-13T11:37:31.917Z,18.83
2022-12-13T11:40:20.522Z,22.08
2022-12-13T11:42:52.947Z,17.30
2022-12-13T11:45:24.734Z,19.63
2022-12-13T11:48:17.466Z,21.35
2022-12-13T11:50:47.327Z,21.35
2022-12-13T11:53:44.409Z,20.48
2022-12-13T11:56:30.498Z,20.98
2022-12-13T11:59:27.212Z,18.17
2022-12-13T12:02:16.361Z,21.83
2022-12-13T12:04:55.051Z,18.17
2022-12-13T12:08:32.541Z,19.42
2022-12-13T12:10:50.095Z,38.90
2022-12-13T12:13:51.582Z,16.50
2022-12-13T12:16:37.140Z,19.40
2022-12-13T12:19:08.253Z,17.02
2022-12-13T12:22:12.798Z,17.48
2022-12-13T12:24:45.529Z,20.67
2022-12-13T12:27:28.415Z,16.63
2022-12-13T12:30:03.665Z,19.70
2022-12-13T12:32:48.535Z,19.52
2022-12-13T12:35:45.925Z,16.85
2022-12-13T12:38:44.480Z,17.95
2022-12-13T12:41:45.063Z,18.45
2022-12-13T12:44:30.612Z,18.70
2022-12-13T12:49:54.285Z,17.83
2022-12-13T12:52:41.826Z,16.77
2022-12-13T12:55:28.418Z,20.23
2022-12-13T12:58:04.066Z,16.02
2022-12-13T13:00:49.617Z,17.55
2022-12-13T13:03:23.763Z,18.15
2022-12-13T13:05:55.805Z,17.90
2022-12-13T13:08:56.628Z,21.25
2022-12-13T13:11:26.121Z,19.45
2022-12-13T13:14:01.868Z,18.58
2022-12-13T13:16:37.942Z,19.75
2022-12-13T13:19:13.528Z,23.30
2022-12-13T13:21:50.550Z,18.67
2022-12-13T13:24:20.148Z,17.55
2022-12-13T13:26:55.665Z,17.20
2022-12-13T13:29:28.625Z,17.60
2022-12-13T13:32:01.133Z,15.90
2022-12-13T13:34:30.763Z,17.70
2022-12-13T13:36:58.101Z,17.80
2022-12-13T13:39:36.793Z,17.80
2022-12-13T13:42:09.252Z,17.02
2022-12-13T13:44:55.378Z,18.10
2022-12-13T13:47:24.880Z,18.15
2022-12-13T13:50:16.476Z,17.48
2022-12-13T13:56:14.686Z,18.15
2022-12-13T13:59:18.470Z,16.98
2022-12-13T14:02:10.238Z,19.33
2022-12-13T14:05:14.025Z,22.30
2022-12-13T14:07:55.835Z,22.90
2022-12-13T14:11:06.124Z,16.80
2022-12-13T14:13:39.998Z,17.45
2022-12-13T14:16:29.064Z,18.83
2022-12-13T14:19:07.653Z,17.40
2022-12-13T14:21:37.940Z,18.13
2022-12-13T14:24:30.387Z,20.70
2022-12-13T14:27:19.346Z,19.70
2022-12-13T14:29:48.231Z,21.98
2022-12-13T14:32:30.429Z,17.48
2022-12-13T14:34:58.421Z,17.45
2022-12-13T14:37:31.082Z,16.48
2022-12-13T14:39:59.512Z,16.92
2022-12-13T14:42:29.214Z,16.25
2022-12-13T14:45:12.213Z,15.85
2022-12-13T14:47:43.187Z,18.02
2022-12-13T14:50:16.573Z,15.52
2022-12-13T14:52:44.254Z,17.25
2022-12-13T14:55:22.797Z,16.80
2022-12-13T14:57:54.605Z,15.50
2022-12-13T15:00:31.013Z,16.90
2022-12-13T15:03:00.348Z,14.18
2022-12-13T15:05:38.750Z,16.50
2022-12-13T15:08:10.479Z,16.27
2022-12-13T15:10:48.728Z,17.42
2022-12-13T15:13:29.337Z,15.90
2022-12-13T15:16:10.365Z,17.92
2022-12-13T15:18:38.515Z,19.58
2022-12-13T15:21:24.394Z,16.80
2022-12-13T15:23:52.904Z,17.10
2022-12-13T15:26:28.034Z,19.63
2022-12-13T15:29:09.795Z,21.58
2022-12-13T15:31:36.931Z,30.42
2022-12-13T15:34:30.356Z,31.63
2022-12-13T15:37:28.495Z,27.45
2022-12-13T15:40:00.508Z,30.60
2022-12-13T15:42:33.282Z,21.13
2022-12-13T15:45:03.835Z,17.48
2022-12-13T15:47:30.962Z,15.85
2022-12-13T15:50:05.854Z,19.92
2022-12-13T15:52:38.587Z,21.42
2022-12-13T15:55:05.181Z,22.63
2022-12-13T15:57:34.581Z,26.15
2022-12-13T16:00:04.837Z,22.98
2022-12-13T16:02:31.628Z,34.33
2022-12-13T16:05:10.193Z,34.50
2022-12-13T16:07:39.901Z,25.88
2022-12-13T16:10:08.150Z,23.25
2022-12-13T16:12:47.987Z,19.35
2022-12-13T16:15:28.830Z,17.63
2022-12-13T16:18:14.990Z,18.77
2022-12-13T16:20:43.975Z,16.42
2022-12-13T16:23:10.509Z,18.60
2022-12-13T16:25:53.667Z,19.00
2022-12-13T16:28:20.233Z,20.13
2022-12-13T16:30:52.954Z,17.25
2022-12-13T16:33:29.502Z,16.38
2022-12-13T16:35:56.600Z,21.40
2022-12-13T16:38:26.677Z,22.67
2022-12-13T16:40:56.135Z,19.92
2022-12-13T16:43:33.010Z,17.85
2022-12-13T16:45:59.862Z,19.95
2022-12-13T16:48:26.780Z,18.02
2022-12-13T16:50:57.631Z,16.42
2022-12-13T16:53:25.356Z,19.45
2022-12-13T16:55:58.322Z,21.30
2022-12-13T16:58:26.061Z,16.73
2022-12-13T17:00:52.729Z,18.38
2022-12-13T17:03:25.977Z,18.50
2022-12-13T17:05:58.982Z,18.23
2022-12-13T17:08:25.780Z,17.38
2022-12-13T17:10:57.915Z,20.33
2022-12-13T17:13:25.599Z,17.63
2022-12-13T17:15:59.029Z,16.70
2022-12-13T17:18:26.177Z,20.30
2022-12-13T17:20:58.379Z,17.17
2022-12-13T17:23:27.350Z,21.65
2022-12-13T17:25:58.348Z,26.67
2022-12-13T17:28:25.603Z,17.73
2022-12-13T17:30:52.093Z,19.42
2022-12-13T17:33:21.695Z,18.70
2022-12-13T17:35:48.224Z,18.88
2022-12-13T17:38:14.721Z,20.67
2022-12-13T17:40:41.041Z,18.98
2022-12-13T17:43:07.575Z,19.38
2022-12-13T17:45:34.074Z,17.83
2022-12-13T17:48:00.399Z,18.40
2022-12-13T17:50:28.148Z,17.10
2022-12-13T17:52:54.683Z,17.38
2022-12-13T17:55:21.280Z,21.02
2022-12-13T17:57:47.810Z,17.05
2022-12-13T18:00:15.017Z,25.90
2022-12-13T18:02:41.585Z,28.15
2022-12-13T18:05:25.160Z,24.42
2022-12-13T18:07:52.003Z,21.85
2022-12-13T18:10:19.025Z,19.33
2022-12-13T18:12:45.516Z,19.05
2022-12-13T18:15:12.045Z,18.58
2022-12-13T18:18:09.490Z,16.85
2022-12-13T18:20:25.374Z,17.83
2022-12-13T18:22:52.015Z,22.58
2022-12-13T18:25:18.447Z,22.40
2022-12-13T18:27:44.814Z,22.45
2022-12-13T18:30:12.149Z,25.90
2022-12-13T18:32:40.278Z,25.42
2022-12-13T18:35:07.082Z,28.02
2022-12-13T18:37:33.601Z,54.40
2022-12-13T18:39:59.976Z,34.13
2022-12-13T18:42:26.326Z,27.13
2022-12-13T18:44:54.498Z,25.38
2022-12-13T18:47:23.375Z,21.05
2022-12-13T18:49:54.889Z,19.00
2022-12-13T18:52:23.527Z,17.58
2022-12-13T18:54:54.671Z,17.13
2022-12-13T18:57:21.763Z,17.90
2022-12-13T18:59:54.344Z,19.25
2022-12-13T19:02:21.767Z,19.35
2022-12-13T19:04:55.505Z,19.67
2022-12-13T19:07:22.796Z,22.42
2022-12-13T19:09:54.765Z,20.75
2022-12-13T19:12:21.859Z,21.08
2022-12-13T19:14:54.946Z,21.45
2022-12-13T19:17:22.060Z,21.17
2022-12-13T19:19:48.568Z,18.98
2022-12-13T19:22:15.972Z,18.73
2022-12-13T19:24:42.528Z,21.15
2022-12-13T19:27:09.103Z,20.33
2022-12-13T19:29:35.462Z,19.02
2022-12-13T19:32:02.111Z,24.60
2022-12-13T19:34:28.591Z,21.75
2022-12-13T19:36:55.094Z,46.10
2022-12-13T19:39:21.635Z,44.63
2022-12-13T19:41:48.646Z,48.78
2022-12-13T19:44:15.229Z,36.83
2022-12-13T19:46:41.879Z,33.80
2022-12-13T19:49:11.611Z,22.50
2022-12-13T19:51:40.052Z,19.63
2022-12-13T19:54:06.579Z,18.75
2022-12-13T19:56:33.147Z,20.75
2022-12-13T19:58:59.726Z,17.35
2022-12-13T20:01:26.255Z,19.63
2022-12-13T20:03:52.755Z,21.65
2022-12-13T20:06:22.670Z,19.45
2022-12-13T20:08:49.765Z,21.80
2022-12-13T20:11:21.775Z,22.98
2022-12-13T20:13:49.422Z,21.73
2022-12-13T20:16:18.966Z,18.83
2022-12-13T20:18:45.994Z,19.38
2022-12-13T20:21:14.721Z,18.98
2022-12-13T20:23:49.513Z,20.65
2022-12-13T20:26:22.157Z,23.48
2022-12-13T20:28:50.284Z,25.25
2022-12-13T20:31:20.451Z,19.75
2022-12-13T20:33:48.601Z,25.92
2022-12-13T20:36:26.366Z,20.55
2022-12-13T20:38:58.547Z,21.38
2022-12-13T20:41:28.171Z,20.85
2022-12-13T20:43:57.161Z,18.88
2022-12-13T20:46:25.169Z,22.48
2022-12-13T20:48:52.748Z,19.63
2022-12-13T20:51:21.704Z,23.75
2022-12-13T20:53:49.882Z,23.30
2022-12-13T20:56:27.819Z,21.75
2022-12-13T20:58:55.200Z,21.67
2022-12-13T21:01:30.537Z,21.52
2022-12-13T21:04:00.233Z,22.77
2022-12-13T21:06:28.717Z,21.70
2022-12-13T21:08:57.559Z,20.52
2022-12-13T21:11:30.378Z,21.48
2022-12-13T21:14:05.291Z,20.15
2022-12-13T21:16:37.010Z,18.70
2022-12-13T21:19:03.791Z,23.27
2022-12-13T21:21:30.584Z,26.42
2022-12-13T21:23:57.473Z,24.83
2022-12-13T21:26:27.602Z,24.17
2022-12-13T21:28:58.650Z,53.75
2022-12-13T21:31:25.974Z,51.45
2022-12-13T21:33:54.698Z,35.35
2022-12-13T21:36:32.611Z,31.10
2022-12-13T21:39:01.641Z,30.83
2022-12-13T21:41:28.658Z,39.03
2022-12-13T21:43:55.631Z,34.03
2022-12-13T21:46:31.303Z,23.58
2022-12-13T21:49:11.534Z,29.73
2022-12-13T21:51:37.907Z,29.88
2022-12-13T21:54:04.580Z,27.20
2022-12-13T21:56:50.337Z,25.15
2022-12-13T21:59:23.797Z,26.33
2022-12-13T22:02:12.588Z,25.60
2022-12-13T22:04:46.421Z,24.40
2022-12-13T22:07:21.915Z,29.00
2022-12-13T22:09:49.454Z,21.52
2022-12-13T22:12:18.576Z,26.77
2022-12-13T22:14:46.242Z,22.90
2022-12-13T22:17:13.328Z,27.85
2022-12-13T22:19:39.884Z,24.80
2022-12-13T22:22:06.894Z,21.33
2022-12-13T22:24:33.334Z,24.73
2022-12-13T22:27:00.480Z,20.80
2022-12-13T22:29:27.048Z,21.95
2022-12-13T22:31:53.629Z,25.98
2022-12-13T22:34:20.250Z,23.10
2022-12-13T22:36:46.807Z,21.90
2022-12-13T22:39:18.137Z,20.77
2022-12-13T22:41:46.034Z,21.85
2022-12-13T22:44:13.640Z,24.48
2022-12-13T22:46:40.575Z,26.52
2022-12-13T22:49:08.486Z,22.75
2022-12-13T22:51:35.378Z,18.48
2022-12-13T22:54:01.906Z,20.15
2022-12-13T22:56:28.622Z,23.10
2022-12-13T22:58:57.258Z,21.77
2022-12-13T23:01:27.001Z,19.35
2022-12-13T23:03:53.697Z,20.70
2022-12-13T23:06:25.464Z,20.50
2022-12-13T23:08:55.159Z,21.70
2022-12-13T23:11:40.962Z,22.35
2022-12-13T23:14:10.937Z,23.23
2022-12-13T23:16:37.921Z,23.75
2022-12-13T23:19:39.781Z,21.95
2022-12-13T23:21:53.641Z,23.55
2022-12-13T23:24:20.264Z,22.90
2022-12-13T23:26:46.813Z,20.38
2022-12-13T23:29:13.345Z,21.25
2022-12-13T23:31:48.484Z,24.83
2022-12-13T23:34:15.582Z,20.92
2022-12-13T23:36:42.179Z,23.15
2022-12-13T23:39:09.214Z,21.15
2022-12-13T23:41:35.801Z,20.88
2022-12-13T23:44:04.230Z,20.83
2022-12-13T23:46:33.649Z,20.67
2022-12-13T23:49:01.147Z,21.98
2022-12-13T23:51:28.473Z,21.52
2022-12-13T23:53:54.970Z,21.25
2022-12-13T23:56:22.053Z,21.08
2022-12-13T23:58:48.588Z,21.90
